createdAt,value
2018-04-17T00:00:01.643Z,29.70
2018-04-17T00:02:29.194Z,29.70
2018-04-17T00:04:56.822Z,29.70
2018-04-17T00:07:24.315Z,29.70
2018-04-17T00:09:51.774Z,29.70
2018-04-17T00:12:20.115Z,29.80
2018-04-17T00:14:47.607Z,29.80
2018-04-17T00:17:15.843Z,29.80
2018-04-17T00:19:43.478Z,29.80
2018-04-17T00:22:10.955Z,29.80
2018-04-17T00:24:38.463Z,29.80
2018-04-17T00:27:05.919Z,29.80
2018-04-17T00:29:33.675Z,29.80
2018-04-17T00:32:01.225Z,29.80
2018-04-17T00:34:28.904Z,29.80
2018-04-17T00:36:56.667Z,29.80
2018-04-17T00:39:24.186Z,29.80
2018-04-17T00:41:51.647Z,29.80
2018-04-17T00:44:19.202Z,29.80
2018-04-17T00:46:46.744Z,29.80
2018-04-17T00:49:14.210Z,29.80
2018-04-17T00:51:41.671Z,29.70
2018-04-17T00:54:09.334Z,29.70
2018-04-17T00:56:36.786Z,29.70
2018-04-17T00:59:04.255Z,29.70
2018-04-17T01:01:31.714Z,29.70
2018-04-17T01:03:59.310Z,29.70
2018-04-17T01:06:27.063Z,29.70
2018-04-17T01:08:54.606Z,29.70
2018-04-17T01:11:22.286Z,29.70
2018-04-17T01:13:49.914Z,29.80
2018-04-17T01:16:17.522Z,29.70
2018-04-17T01:18:45.270Z,29.70
2018-04-17T01:21:12.897Z,29.70
2018-04-17T01:23:40.377Z,29.70
2018-04-17T01:26:07.946Z,29.70
2018-04-17T01:28:35.509Z,29.80
2018-04-17T01:31:03.166Z,29.80
2018-04-17T01:33:30.635Z,29.80
2018-04-17T01:35:58.107Z,29.80
2018-04-17T01:38:25.778Z,29.80
2018-04-17T01:40:53.302Z,29.80
2018-04-17T01:43:20.829Z,29.80
2018-04-17T01:45:48.513Z,29.80
2018-04-17T01:48:15.989Z,29.80
2018-04-17T01:50:43.461Z,29.80
2018-04-17T01:53:11.057Z,29.80
2018-04-17T01:55:38.563Z,29.80
2018-04-17T01:58:06.902Z,29.80
2018-04-17T02:00:34.380Z,29.80
2018-04-17T02:03:01.959Z,29.80
2018-04-17T02:05:29.409Z,29.80
2018-04-17T02:07:56.869Z,29.80
2018-04-17T02:10:25.035Z,29.80
2018-04-17T02:12:53.005Z,29.80
2018-04-17T02:15:20.471Z,29.80
2018-04-17T02:17:47.937Z,29.80
2018-04-17T02:20:15.757Z,29.80
2018-04-17T02:22:43.609Z,29.80
2018-04-17T02:25:11.154Z,29.80
2018-04-17T02:27:38.603Z,29.80
2018-04-17T02:30:06.125Z,29.80
2018-04-17T02:32:33.582Z,29.80
2018-04-17T02:35:01.218Z,29.80
2018-04-17T02:37:28.750Z,29.80
2018-04-17T02:39:56.267Z,29.80
2018-04-17T02:42:23.914Z,29.80
2018-04-17T02:44:51.488Z,29.90
2018-04-17T02:47:19.487Z,29.90
2018-04-17T02:49:46.957Z,30.30
2018-04-17T02:52:14.421Z,29.90
2018-04-17T02:54:41.870Z,29.90
2018-04-17T02:57:09.387Z,29.90
2018-04-17T02:59:37.013Z,29.90
2018-04-17T03:02:04.623Z,29.90
2018-04-17T03:04:32.371Z,29.90
2018-04-17T03:06:59.831Z,29.90
2018-04-17T03:09:27.487Z,29.90
2018-04-17T03:11:54.946Z,29.90
2018-04-17T03:14:23.421Z,29.90
2018-04-17T03:16:50.874Z,29.90
2018-04-17T03:19:18.329Z,29.90
2018-04-17T03:21:46.010Z,29.90
2018-04-17T03:24:13.559Z,29.90
2018-04-17T03:26:41.030Z,29.90
2018-04-17T03:29:08.678Z,29.90
2018-04-17T03:31:36.143Z,29.90
2018-04-17T03:34:03.594Z,29.90
2018-04-17T03:36:31.059Z,29.90
2018-04-17T03:38:58.553Z,29.90
2018-04-17T03:41:26.022Z,29.90
2018-04-17T03:43:54.444Z,29.90
2018-04-17T03:46:21.998Z,29.90
2018-04-17T03:48:49.458Z,29.90
2018-04-17T03:51:17.347Z,30.00
2018-04-17T03:53:44.794Z,30.00
2018-04-17T03:56:12.329Z,30.00
2018-04-17T03:58:39.793Z,30.00
2018-04-17T04:01:08.786Z,30.00
2018-04-17T04:03:36.863Z,30.00
2018-04-17T04:06:04.491Z,30.00
2018-04-17T04:08:31.955Z,30.00
2018-04-17T04:10:59.530Z,30.00
2018-04-17T04:13:26.990Z,30.00
2018-04-17T04:15:54.458Z,30.00
2018-04-17T04:18:33.777Z,30.00
2018-04-17T04:21:13.347Z,30.00
2018-04-17T04:23:52.494Z,30.00
2018-04-17T04:26:31.821Z,30.00
2018-04-17T04:29:04.271Z,30.00
2018-04-17T04:31:32.022Z,30.00
2018-04-17T04:33:59.478Z,30.00
2018-04-17T04:36:27.258Z,30.00
2018-04-17T04:38:54.726Z,30.00
2018-04-17T04:41:22.336Z,30.00
2018-04-17T04:43:49.826Z,30.00
2018-04-17T04:46:17.277Z,30.00
2018-04-17T04:48:44.734Z,30.00
2018-04-17T04:51:12.195Z,30.00
2018-04-17T04:53:39.664Z,30.00
2018-04-17T04:56:08.040Z,30.00
2018-04-17T04:58:35.530Z,30.00
2018-04-17T05:01:03.050Z,30.00
2018-04-17T05:03:30.504Z,30.00
2018-04-17T05:05:57.973Z,30.00
2018-04-17T05:08:25.591Z,30.60
2018-04-17T05:10:53.178Z,30.00
2018-04-17T05:13:20.824Z,30.00
2018-04-17T05:15:48.503Z,30.00
2018-04-17T05:18:16.127Z,30.00
2018-04-17T05:20:43.594Z,30.00
2018-04-17T05:23:11.058Z,30.00
2018-04-17T05:25:38.705Z,30.00
2018-04-17T05:28:06.234Z,30.00
2018-04-17T05:30:33.762Z,30.00
2018-04-17T05:33:01.386Z,30.00
2018-04-17T05:35:28.850Z,30.00
2018-04-17T05:37:56.437Z,30.00
2018-04-17T05:40:24.069Z,30.00
2018-04-17T05:42:51.542Z,30.00
2018-04-17T05:45:18.999Z,30.00
2018-04-17T05:47:46.570Z,30.00
2018-04-17T05:50:14.037Z,30.00
2018-04-17T05:52:41.795Z,30.00
2018-04-17T05:55:09.434Z,30.00
2018-04-17T05:57:37.010Z,30.00
2018-04-17T06:00:04.466Z,30.00
2018-04-17T06:02:31.937Z,30.00
2018-04-17T06:04:59.514Z,30.00
2018-04-17T06:07:27.770Z,30.00
2018-04-17T06:09:55.554Z,30.00
2018-04-17T06:12:23.135Z,30.00
2018-04-17T06:14:50.619Z,30.00
2018-04-17T06:17:18.133Z,30.00
2018-04-17T06:19:45.603Z,30.00
2018-04-17T06:22:13.058Z,30.00
2018-04-17T06:24:40.570Z,30.00
2018-04-17T06:27:08.205Z,30.00
2018-04-17T06:29:35.694Z,30.00
2018-04-17T06:32:03.158Z,30.00
2018-04-17T06:34:30.726Z,30.00
2018-04-17T06:36:58.370Z,30.00
2018-04-17T06:39:25.821Z,30.00
2018-04-17T06:41:53.423Z,30.00
2018-04-17T06:44:20.897Z,30.00
2018-04-17T06:46:48.480Z,30.00
2018-04-17T06:49:15.990Z,29.90
2018-04-17T06:51:43.490Z,30.00
2018-04-17T06:54:10.980Z,29.90
2018-04-17T06:56:38.592Z,29.90
2018-04-17T06:59:06.201Z,29.90
2018-04-17T07:01:33.660Z,29.90
2018-04-17T07:04:01.578Z,29.90
2018-04-17T07:06:29.093Z,29.90
2018-04-17T07:08:56.590Z,29.90
2018-04-17T07:11:24.164Z,29.90
2018-04-17T07:13:51.879Z,29.80
2018-04-17T07:16:19.372Z,29.80
2018-04-17T07:18:47.015Z,29.80
2018-04-17T07:21:14.477Z,29.80
2018-04-17T07:23:42.074Z,29.80
2018-04-17T07:26:09.666Z,29.80
2018-04-17T07:28:37.124Z,29.80
2018-04-17T07:31:04.674Z,29.70
2018-04-17T07:33:32.146Z,29.70
2018-04-17T07:35:59.898Z,29.70
2018-04-17T07:38:27.658Z,29.70
2018-04-17T07:40:55.123Z,29.70
2018-04-17T07:43:22.877Z,29.60
2018-04-17T07:45:50.358Z,29.60
2018-04-17T07:48:29.732Z,29.60
2018-04-17T07:50:57.230Z,29.60
2018-04-17T07:53:24.802Z,29.50
2018-04-17T07:55:52.697Z,29.50
2018-04-17T07:58:20.151Z,29.40
2018-04-17T08:00:47.610Z,29.50
2018-04-17T08:03:15.080Z,29.50
2018-04-17T08:05:42.587Z,29.50
2018-04-17T08:08:10.060Z,29.40
2018-04-17T08:10:37.706Z,29.40
2018-04-17T08:13:05.168Z,29.40
2018-04-17T08:15:32.805Z,29.40
2018-04-17T08:18:00.482Z,29.40
2018-04-17T08:20:27.941Z,29.30
2018-04-17T08:22:55.418Z,29.30
2018-04-17T08:25:22.871Z,29.30
2018-04-17T08:27:50.391Z,29.30
2018-04-17T08:30:18.079Z,29.30
2018-04-17T08:32:45.713Z,29.20
2018-04-17T08:35:13.294Z,29.20
2018-04-17T08:37:40.782Z,29.20
2018-04-17T08:40:08.394Z,29.20
2018-04-17T08:42:35.853Z,29.20
2018-04-17T08:45:03.431Z,29.20
2018-04-17T08:47:30.894Z,29.20
2018-04-17T08:49:58.346Z,29.20
2018-04-17T08:52:26.127Z,29.20
2018-04-17T08:54:53.875Z,29.20
2018-04-17T08:57:21.942Z,29.20
2018-04-17T08:59:49.399Z,29.20
2018-04-17T09:02:16.869Z,29.10
2018-04-17T09:04:44.538Z,29.10
2018-04-17T09:07:12.064Z,29.10
2018-04-17T09:09:39.507Z,29.20
2018-04-17T09:12:06.966Z,29.10
2018-04-17T09:14:34.761Z,29.10
2018-04-17T09:17:02.537Z,29.10
2018-04-17T09:19:30.291Z,29.60
2018-04-17T09:21:58.053Z,29.10
2018-04-17T09:24:25.514Z,29.10
2018-04-17T09:26:53.291Z,29.10
2018-04-17T09:29:20.984Z,29.10
2018-04-17T09:31:48.654Z,29.10
2018-04-17T09:34:16.250Z,29.10
2018-04-17T09:36:44.015Z,29.10
2018-04-17T09:39:11.658Z,29.10
2018-04-17T09:41:39.113Z,29.10
2018-04-17T09:44:06.699Z,29.10
2018-04-17T09:46:34.459Z,29.10
2018-04-17T09:49:02.086Z,29.10
2018-04-17T09:51:29.555Z,29.10
2018-04-17T09:53:57.019Z,29.10
2018-04-17T09:56:24.475Z,29.10
2018-04-17T09:58:51.934Z,29.10
2018-04-17T10:01:22.165Z,29.10
2018-04-17T10:03:49.728Z,29.00
2018-04-17T10:06:17.186Z,29.00
2018-04-17T10:08:44.653Z,29.00
2018-04-17T10:11:12.117Z,29.10
2018-04-17T10:13:39.771Z,29.00
2018-04-17T10:16:07.389Z,29.00
2018-04-17T10:18:35.005Z,29.00
2018-04-17T10:21:02.474Z,29.00
2018-04-17T10:23:30.002Z,29.00
2018-04-17T10:25:57.779Z,29.10
2018-04-17T10:28:25.408Z,29.10
2018-04-17T10:30:52.862Z,29.00
2018-04-17T10:33:20.343Z,29.00
2018-04-17T10:35:47.810Z,29.00
2018-04-17T10:38:15.602Z,29.00
2018-04-17T10:40:43.083Z,29.00
2018-04-17T10:43:10.547Z,29.00
2018-04-17T10:45:38.340Z,29.00
2018-04-17T10:48:05.814Z,29.00
2018-04-17T10:50:33.454Z,29.00
2018-04-17T10:53:00.941Z,29.00
2018-04-17T10:55:28.406Z,29.00
2018-04-17T10:57:55.854Z,29.00
2018-04-17T11:00:23.387Z,29.00
2018-04-17T11:02:50.868Z,29.00
2018-04-17T11:05:18.524Z,29.00
2018-04-17T11:07:46.015Z,29.00
2018-04-17T11:10:13.461Z,29.10
2018-04-17T11:12:40.917Z,29.00
2018-04-17T11:15:08.374Z,29.00
2018-04-17T11:17:35.847Z,29.00
2018-04-17T11:20:03.350Z,29.00
2018-04-17T11:22:30.804Z,29.10
2018-04-17T11:24:58.278Z,29.10
2018-04-17T11:27:25.896Z,29.00
2018-04-17T11:29:53.454Z,29.00
2018-04-17T11:32:20.938Z,29.10
2018-04-17T11:34:48.431Z,29.00
2018-04-17T11:37:15.849Z,29.00
2018-04-17T11:39:43.311Z,29.00
2018-04-17T11:42:10.968Z,29.00
2018-04-17T11:44:38.532Z,29.50
2018-04-17T11:47:06.006Z,29.00
2018-04-17T11:49:33.463Z,29.00
2018-04-17T11:52:01.071Z,29.00
2018-04-17T11:54:28.824Z,29.00
2018-04-17T11:56:56.274Z,29.00
2018-04-17T11:59:23.825Z,29.00
2018-04-17T12:01:51.278Z,29.00
2018-04-17T12:04:18.730Z,29.00
2018-04-17T12:06:46.198Z,29.00
2018-04-17T12:09:13.650Z,29.00
2018-04-17T12:11:41.106Z,29.00
2018-04-17T12:14:08.786Z,29.00
2018-04-17T12:16:36.291Z,29.00
2018-04-17T12:19:04.721Z,29.10
2018-04-17T12:21:32.247Z,29.00
2018-04-17T12:23:59.863Z,29.10
2018-04-17T12:26:27.322Z,29.00
2018-04-17T12:28:54.843Z,29.10
2018-04-17T12:31:22.311Z,29.00
2018-04-17T12:33:49.863Z,29.10
2018-04-17T12:36:17.582Z,29.10
2018-04-17T12:38:45.035Z,29.10
2018-04-17T12:41:12.513Z,29.10
2018-04-17T12:43:40.254Z,29.10
2018-04-17T12:46:07.714Z,29.10
2018-04-17T12:48:35.191Z,29.10
2018-04-17T12:51:02.839Z,29.10
2018-04-17T12:53:30.394Z,29.10
2018-04-17T12:55:58.050Z,29.10
2018-04-17T12:58:26.480Z,29.10
2018-04-17T13:00:53.935Z,29.10
2018-04-17T13:03:21.387Z,29.10
2018-04-17T13:05:48.856Z,29.10
2018-04-17T13:08:16.318Z,29.10
2018-04-17T13:10:43.765Z,29.20
2018-04-17T13:13:11.224Z,29.20
2018-04-17T13:15:38.777Z,29.20
2018-04-17T13:18:06.211Z,29.20
2018-04-17T13:20:33.955Z,29.80
2018-04-17T13:23:01.421Z,29.50
2018-04-17T13:25:28.881Z,29.70
2018-04-17T13:27:56.346Z,29.90
2018-04-17T13:30:23.842Z,30.00
2018-04-17T13:32:51.317Z,30.10
2018-04-17T13:35:18.782Z,30.20
2018-04-17T13:37:46.250Z,30.40
2018-04-17T13:40:13.799Z,30.50
2018-04-17T13:42:41.279Z,30.50
2018-04-17T13:45:08.830Z,30.40
2018-04-17T13:47:36.299Z,30.40
2018-04-17T13:50:03.783Z,30.40
2018-04-17T13:52:31.252Z,30.40
2018-04-17T13:54:58.707Z,30.30
2018-04-17T13:57:26.378Z,30.40
2018-04-17T13:59:53.833Z,30.20
2018-04-17T14:02:21.578Z,30.20
2018-04-17T14:04:49.103Z,30.20
2018-04-17T14:07:16.563Z,30.10
2018-04-17T14:09:44.070Z,30.10
2018-04-17T14:12:11.644Z,30.10
2018-04-17T14:14:39.153Z,30.10
2018-04-17T14:17:06.695Z,30.00
2018-04-17T14:19:34.162Z,30.00
2018-04-17T14:22:01.922Z,30.10
2018-04-17T14:24:29.723Z,30.00
2018-04-17T14:26:57.186Z,30.00
2018-04-17T14:29:24.857Z,30.00
2018-04-17T14:31:52.339Z,30.00
2018-04-17T14:34:19.914Z,30.10
2018-04-17T14:36:47.448Z,30.10
2018-04-17T14:39:14.911Z,30.00
2018-04-17T14:41:42.398Z,30.00
2018-04-17T14:44:10.619Z,30.00
2018-04-17T14:46:38.102Z,30.00
2018-04-17T14:49:05.929Z,30.00
2018-04-17T14:51:33.404Z,30.00
2018-04-17T14:54:00.942Z,29.90
2018-04-17T14:56:28.476Z,29.90
2018-04-17T14:58:56.477Z,29.90
2018-04-17T15:01:24.062Z,29.90
2018-04-17T15:03:51.682Z,30.30
2018-04-17T15:06:19.206Z,29.90
2018-04-17T15:08:46.721Z,29.90
2018-04-17T15:11:14.481Z,29.90
2018-04-17T15:13:42.194Z,30.00
2018-04-17T15:16:09.818Z,30.10
2018-04-17T15:18:37.348Z,30.30
2018-04-17T15:21:04.810Z,30.40
2018-04-17T15:23:32.439Z,30.40
2018-04-17T15:26:00.047Z,30.30
2018-04-17T15:28:27.506Z,30.20
2018-04-17T15:30:54.973Z,30.10
2018-04-17T15:33:22.443Z,30.00
2018-04-17T15:35:49.926Z,30.00
2018-04-17T15:38:17.464Z,30.00
2018-04-17T15:40:44.898Z,30.00
2018-04-17T15:43:12.462Z,29.90
2018-04-17T15:45:39.949Z,29.90
2018-04-17T15:48:07.462Z,29.80
2018-04-17T15:50:34.930Z,29.80
2018-04-17T15:53:02.430Z,29.70
2018-04-17T15:55:29.995Z,29.70
2018-04-17T15:57:57.570Z,29.60
2018-04-17T16:00:25.064Z,29.60
2018-04-17T16:02:52.543Z,29.60
2018-04-17T16:05:19.999Z,29.50
2018-04-17T16:07:47.479Z,29.50
2018-04-17T16:10:15.559Z,29.50
2018-04-17T16:12:43.024Z,29.40
2018-04-17T16:15:10.777Z,29.40
2018-04-17T16:17:38.430Z,29.30
2018-04-17T16:20:05.892Z,29.30
2018-04-17T16:22:33.361Z,29.20
2018-04-17T16:25:00.842Z,29.20
2018-04-17T16:27:28.302Z,29.20
2018-04-17T16:29:55.765Z,29.20
2018-04-17T16:32:23.217Z,29.20
2018-04-17T16:34:50.687Z,29.20
2018-04-17T16:37:18.192Z,29.20
2018-04-17T16:39:45.663Z,29.20
2018-04-17T16:42:13.118Z,29.20
2018-04-17T16:44:40.574Z,29.20
2018-04-17T16:47:08.039Z,29.20
2018-04-17T16:49:35.499Z,29.20
2018-04-17T16:52:03.114Z,29.30
2018-04-17T16:54:30.595Z,29.20
2018-04-17T16:56:58.046Z,29.30
2018-04-17T16:59:25.780Z,29.20
2018-04-17T17:01:53.355Z,29.20
2018-04-17T17:04:20.839Z,29.30
2018-04-17T17:06:48.415Z,29.30
2018-04-17T17:09:16.635Z,29.40
2018-04-17T17:11:44.122Z,29.40
2018-04-17T17:14:11.698Z,29.40
2018-04-17T17:16:40.564Z,29.50
2018-04-17T17:19:08.326Z,29.40
2018-04-17T17:21:36.095Z,29.40
2018-04-17T17:24:03.550Z,29.40
2018-04-17T17:26:31.495Z,29.30
2018-04-17T17:28:58.971Z,29.30
2018-04-17T17:31:26.550Z,29.30
2018-04-17T17:33:54.004Z,29.30
2018-04-17T17:36:21.502Z,29.20
2018-04-17T17:38:49.151Z,29.30
2018-04-17T17:41:16.623Z,29.30
2018-04-17T17:43:44.146Z,29.30
2018-04-17T17:46:11.604Z,29.30
2018-04-17T17:48:39.099Z,29.30
2018-04-17T17:51:06.845Z,29.30
2018-04-17T17:53:34.297Z,29.30
2018-04-17T17:56:01.830Z,29.30
2018-04-17T17:58:29.483Z,29.20
2018-04-17T18:00:57.038Z,29.20
2018-04-17T18:03:24.702Z,29.20
2018-04-17T18:05:52.478Z,29.20
2018-04-17T18:08:20.106Z,29.30
2018-04-17T18:10:47.610Z,29.20
2018-04-17T18:13:15.070Z,29.20
2018-04-17T18:15:42.528Z,29.20
2018-04-17T18:18:10.006Z,29.30
2018-04-17T18:20:37.458Z,29.30
2018-04-17T18:23:04.914Z,29.30
2018-04-17T18:25:32.445Z,29.30
2018-04-17T18:28:00.059Z,29.30
2018-04-17T18:30:27.631Z,29.30
2018-04-17T18:32:55.279Z,29.30
2018-04-17T18:35:22.742Z,29.20
2018-04-17T18:37:50.258Z,29.20
2018-04-17T18:40:17.706Z,29.20
2018-04-17T18:42:45.946Z,29.20
2018-04-17T18:45:13.407Z,29.20
2018-04-17T18:47:41.018Z,29.20
2018-04-17T18:50:08.470Z,29.20
2018-04-17T18:52:35.973Z,29.20
2018-04-17T18:55:03.446Z,29.20
2018-04-17T18:57:31.027Z,29.20
2018-04-17T18:59:58.535Z,29.20
2018-04-17T19:02:25.989Z,29.20
2018-04-17T19:04:53.578Z,29.20
2018-04-17T19:07:21.356Z,29.20
2018-04-17T19:09:49.091Z,29.20
2018-04-17T19:12:16.742Z,29.20
2018-04-17T19:14:44.350Z,29.20
2018-04-17T19:17:11.791Z,29.20
2018-04-17T19:19:39.589Z,29.20
2018-04-17T19:22:07.043Z,29.20
2018-04-17T19:24:34.505Z,29.20
2018-04-17T19:27:01.954Z,29.20
2018-04-17T19:29:29.627Z,29.20
2018-04-17T19:31:57.481Z,29.30
2018-04-17T19:34:25.231Z,29.30
2018-04-17T19:36:52.875Z,29.30
2018-04-17T19:39:20.421Z,29.30
2018-04-17T19:41:47.874Z,29.30
2018-04-17T19:44:15.387Z,29.20
2018-04-17T19:46:42.834Z,29.30
2018-04-17T19:49:10.563Z,29.30
2018-04-17T19:51:38.342Z,29.30
2018-04-17T19:54:06.097Z,29.30
2018-04-17T19:56:33.706Z,29.20
2018-04-17T19:59:01.243Z,29.20
2018-04-17T20:01:28.694Z,29.20
2018-04-17T20:03:56.223Z,29.20
2018-04-17T20:06:23.739Z,29.30
2018-04-17T20:08:51.391Z,29.20
2018-04-17T20:11:18.899Z,29.20
2018-04-17T20:13:46.534Z,29.20
2018-04-17T20:16:14.111Z,29.20
2018-04-17T20:18:41.750Z,29.10
2018-04-17T20:21:09.344Z,29.10
2018-04-17T20:23:36.982Z,29.10
2018-04-17T20:26:04.445Z,29.10
2018-04-17T20:28:31.954Z,29.10
2018-04-17T20:30:59.422Z,29.10
2018-04-17T20:33:26.898Z,29.10
2018-04-17T20:35:54.355Z,29.10
2018-04-17T20:38:21.831Z,29.10
2018-04-17T20:40:49.626Z,29.20
2018-04-17T20:43:17.243Z,29.10
2018-04-17T20:45:44.706Z,29.20
2018-04-17T20:48:12.265Z,29.10
2018-04-17T20:50:39.718Z,29.10
2018-04-17T20:53:07.197Z,29.10
2018-04-17T20:55:34.650Z,29.20
2018-04-17T20:58:02.273Z,29.20
2018-04-17T21:00:29.810Z,29.10
2018-04-17T21:02:57.265Z,29.10
2018-04-17T21:05:24.726Z,29.10
2018-04-17T21:07:52.174Z,29.00
2018-04-17T21:10:19.637Z,29.00
2018-04-17T21:12:47.090Z,29.10
2018-04-17T21:15:14.547Z,29.10
2018-04-17T21:17:42.034Z,29.10
2018-04-17T21:20:09.478Z,29.10
2018-04-17T21:22:37.125Z,29.10
2018-04-17T21:25:04.685Z,29.10
2018-04-17T21:27:32.154Z,29.10
2018-04-17T21:29:59.668Z,29.10
2018-04-17T21:32:27.138Z,29.10
2018-04-17T21:34:54.590Z,29.10
2018-04-17T21:37:22.210Z,29.10
2018-04-17T21:39:50.124Z,29.10
2018-04-17T21:42:17.574Z,29.00
2018-04-17T21:44:45.345Z,29.00
2018-04-17T21:47:13.097Z,29.00
2018-04-17T21:49:40.874Z,29.00
2018-04-17T21:52:08.554Z,29.00
2018-04-17T21:54:36.078Z,29.10
2018-04-17T21:57:03.571Z,29.00
2018-04-17T21:59:31.031Z,29.00
2018-04-17T22:01:58.478Z,29.00
2018-04-17T22:04:26.275Z,29.00
2018-04-17T22:06:53.680Z,29.00
2018-04-17T22:09:21.369Z,29.00
2018-04-17T22:11:49.709Z,29.00
2018-04-17T22:14:17.265Z,28.90
2018-04-17T22:16:44.733Z,28.90
2018-04-17T22:19:12.369Z,28.90
2018-04-17T22:21:39.851Z,29.40
2018-04-17T22:24:07.358Z,29.00
2018-04-17T22:26:34.814Z,28.90
2018-04-17T22:29:02.333Z,28.90
2018-04-17T22:31:29.950Z,28.90
2018-04-17T22:33:57.534Z,28.90
2018-04-17T22:36:25.011Z,28.90
2018-04-17T22:38:52.631Z,28.90
2018-04-17T22:41:20.522Z,28.80
2018-04-17T22:43:48.167Z,28.90
2018-04-17T22:46:15.642Z,28.90
2018-04-17T22:48:48.062Z,28.90
2018-04-17T22:51:15.537Z,28.90
2018-04-17T22:53:43.007Z,28.80
2018-04-17T22:56:10.462Z,28.80
2018-04-17T22:58:37.931Z,28.80
2018-04-17T23:01:05.411Z,28.80
2018-04-17T23:03:33.161Z,28.80
2018-04-17T23:06:00.925Z,28.80
2018-04-17T23:08:28.690Z,28.80
2018-04-17T23:10:56.149Z,28.70
2018-04-17T23:13:23.627Z,28.80
2018-04-17T23:15:51.198Z,28.70
2018-04-17T23:18:19.462Z,28.80
2018-04-17T23:20:46.931Z,28.70
2018-04-17T23:23:14.373Z,28.80
2018-04-17T23:25:41.863Z,28.80
2018-04-17T23:28:09.311Z,28.80
2018-04-17T23:30:37.035Z,28.80
2018-04-17T23:33:04.494Z,28.80
2018-04-17T23:35:31.941Z,28.70
2018-04-17T23:37:59.580Z,28.70
2018-04-17T23:40:27.022Z,28.70
2018-04-17T23:42:54.655Z,29.20
2018-04-17T23:45:22.878Z,28.70
2018-04-17T23:47:50.399Z,28.70
2018-04-17T23:50:17.871Z,28.70
2018-04-17T23:52:45.321Z,28.70
2018-04-17T23:55:12.792Z,28.60
2018-04-17T23:57:40.281Z,28.60
